Terminal Aerodrome Forecast
Issued by NWS

Home | Current Version | Previous Version | Text Only | Print | Product List | Glossary On
Versions: 1 2 3 4 5 6 7 8 9 10 11 12 13 14 15 16 17 18 19 20 21 22 23
154
FTUS43 KGRR 262340
TAFBTL
TAF
KBTL 262340Z 2700/2724 19004KT 4SM BR VCTS BKN030CB
     FM270115 20005KT 4SM -SHRA BR OVC007
     FM270500 23006KT 3SM -SHRA BR OVC005
     FM271000 24006KT 2SM BR OVC003
     FM271300 24006KT 2SM BR OVC005
     FM271700 24006KT P6SM OVC020
     FM272100 27004KT P6SM -SHRA OVC025=

USA.gov is the U.S. government's official web portal to all federal, state and local government web resources and services.